createdAt,value
2022-11-29T00:01:08.163Z,35.50
2022-11-29T00:03:34.827Z,43.05
2022-11-29T00:06:19.632Z,43.58
2022-11-29T00:08:47.076Z,36.92
2022-11-29T00:11:35.869Z,43.85
2022-11-29T00:14:02.778Z,43.45
2022-11-29T00:16:30.857Z,40.05
2022-11-29T00:18:57.469Z,39.22
2022-11-29T00:21:24.138Z,41.13
2022-11-29T00:23:50.787Z,44.25
2022-11-29T00:26:17.811Z,43.50
2022-11-29T00:28:44.428Z,47.67
2022-11-29T00:31:22.686Z,40.65
2022-11-29T00:33:50.093Z,37.08
2022-11-29T00:36:17.250Z,42.53
2022-11-29T00:38:44.217Z,38.35
2022-11-29T00:41:11.414Z,35.60
2022-11-29T00:43:38.596Z,35.50
2022-11-29T00:46:06.151Z,35.90
2022-11-29T00:48:32.785Z,32.42
2022-11-29T00:50:59.600Z,34.42
2022-11-29T00:53:26.267Z,43.00
2022-11-29T00:55:53.424Z,38.92
2022-11-29T00:58:21.099Z,35.97
2022-11-29T01:00:47.820Z,34.80
2022-11-29T01:03:15.691Z,34.97
2022-11-29T01:05:42.991Z,39.28
2022-11-29T01:08:10.798Z,44.72
2022-11-29T01:10:37.463Z,37.05
2022-11-29T01:13:04.787Z,42.45
2022-11-29T01:15:31.632Z,52.22
2022-11-29T01:17:58.297Z,41.28
2022-11-29T01:20:25.129Z,36.85
2022-11-29T01:22:51.882Z,32.35
2022-11-29T01:25:19.435Z,33.53
2022-11-29T01:27:46.875Z,32.47
2022-11-29T01:30:13.667Z,39.28
2022-11-29T01:32:40.387Z,39.90
2022-11-29T01:35:07.779Z,27.95
2022-11-29T01:37:34.635Z,27.92
2022-11-29T01:40:01.347Z,31.05
2022-11-29T01:42:27.992Z,26.80
2022-11-29T01:45:12.688Z,27.48
2022-11-29T01:47:45.987Z,24.48
2022-11-29T01:50:13.279Z,27.38
2022-11-29T01:52:40.516Z,25.85
2022-11-29T01:55:09.795Z,22.95
2022-11-29T01:57:40.983Z,23.95
2022-11-29T02:00:12.708Z,41.20
2022-11-29T02:02:45.182Z,50.60
2022-11-29T02:05:15.055Z,42.63
2022-11-29T02:07:45.871Z,36.97
2022-11-29T02:10:14.004Z,31.75
2022-11-29T02:12:43.395Z,58.35
2022-11-29T02:15:13.561Z,59.13
2022-11-29T02:17:58.973Z,75.28
2022-11-29T02:21:02.884Z,50.08
2022-11-29T02:23:48.026Z,42.08
2022-11-29T02:26:36.191Z,46.08
2022-11-29T02:29:14.981Z,33.25
2022-11-29T02:32:02.753Z,45.33
2022-11-29T02:34:37.066Z,48.97
2022-11-29T02:37:21.546Z,63.58
2022-11-29T02:39:56.983Z,82.05
2022-11-29T02:43:01.223Z,61.33
2022-11-29T02:45:42.956Z,67.93
2022-11-29T02:48:30.479Z,77.10
2022-11-29T02:51:09.878Z,110.00
2022-11-29T02:53:44.211Z,122.75
2022-11-29T02:56:10.872Z,103.90
2022-11-29T02:58:51.038Z,89.75
2022-11-29T03:01:33.786Z,139.50
2022-11-29T03:04:15.561Z,213.65
2022-11-29T03:07:04.005Z,106.35
2022-11-29T03:09:45.451Z,135.60
2022-11-29T03:12:23.939Z,118.18
2022-11-29T03:14:56.315Z,135.90
2022-11-29T03:17:31.960Z,127.00
2022-11-29T03:20:13.966Z,96.85
2022-11-29T03:23:06.196Z,139.50
2022-11-29T03:25:57.327Z,130.82
2022-11-29T03:28:42.174Z,97.03
2022-11-29T03:31:47.061Z,152.15
2022-11-29T03:34:19.387Z,125.53
2022-11-29T03:36:52.009Z,104.60
2022-11-29T03:39:25.318Z,78.68
2022-11-29T03:42:00.029Z,129.35
2022-11-29T03:44:40.403Z,143.25
2022-11-29T03:47:15.463Z,132.85
2022-11-29T03:49:56.371Z,156.98
2022-11-29T03:52:47.675Z,98.32
2022-11-29T03:55:33.087Z,126.88
2022-11-29T03:58:20.739Z,62.72
2022-11-29T04:03:47.647Z,65.63
2022-11-29T04:06:32.705Z,64.78
2022-11-29T04:09:20.959Z,61.22
2022-11-29T04:11:58.784Z,55.50
2022-11-29T04:17:24.751Z,84.05
2022-11-29T04:20:10.541Z,86.43
2022-11-29T04:23:05.103Z,39.83
2022-11-29T04:25:49.451Z,86.88
2022-11-29T04:28:34.788Z,50.75
2022-11-29T04:31:13.159Z,50.70
2022-11-29T04:33:48.548Z,60.45
2022-11-29T04:36:17.871Z,55.80
2022-11-29T04:39:25.264Z,49.47
2022-11-29T04:45:08.135Z,41.22
2022-11-29T04:48:03.768Z,21.02
2022-11-29T04:50:50.357Z,54.25
2022-11-29T04:53:43.655Z,37.75
2022-11-29T04:56:30.415Z,54.75
2022-11-29T04:59:18.579Z,109.20
2022-11-29T05:01:59.970Z,68.80
2022-11-29T05:04:37.575Z,48.75
2022-11-29T05:07:28.774Z,105.82
2022-11-29T05:10:06.219Z,63.13
2022-11-29T05:13:03.665Z,51.55
2022-11-29T05:15:30.233Z,69.78
2022-11-29T05:18:35.512Z,91.55
2022-11-29T05:21:09.107Z,41.45
2022-11-29T05:23:54.189Z,45.38
2022-11-29T05:26:30.677Z,22.73
2022-11-29T05:29:11.135Z,24.13
2022-11-29T05:31:49.087Z,43.10
2022-11-29T05:34:34.681Z,47.35
2022-11-29T05:37:20.476Z,26.77
2022-11-29T05:40:08.579Z,54.10
2022-11-29T05:43:00.107Z,34.90
2022-11-29T05:45:37.131Z,22.05
2022-11-29T05:48:13.603Z,62.30
2022-11-29T05:50:51.187Z,60.42
2022-11-29T05:53:35.354Z,64.13
2022-11-29T05:56:14.168Z,58.08
2022-11-29T05:58:55.920Z,107.93
2022-11-29T06:01:24.189Z,61.58
2022-11-29T06:04:04.852Z,114.57
2022-11-29T06:06:44.411Z,85.45
2022-11-29T06:09:21.931Z,69.70
2022-11-29T06:11:55.175Z,78.53
2022-11-29T06:14:28.041Z,76.95
2022-11-29T06:17:12.595Z,87.32
2022-11-29T06:20:19.167Z,72.13
2022-11-29T06:23:10.705Z,45.80
2022-11-29T06:26:34.225Z,38.33
2022-11-29T06:29:22.119Z,40.97
2022-11-29T06:31:55.871Z,35.78
2022-11-29T06:34:30.962Z,61.33
2022-11-29T06:37:05.537Z,29.83
2022-11-29T06:39:32.397Z,55.00
2022-11-29T06:41:59.041Z,48.67
2022-11-29T06:44:26.014Z,61.63
2022-11-29T06:47:29.095Z,80.20
2022-11-29T06:50:02.839Z,72.15
2022-11-29T06:52:43.503Z,52.90
2022-11-29T06:55:32.473Z,60.22
2022-11-29T06:58:11.402Z,199.15
2022-11-29T07:00:38.584Z,118.05
2022-11-29T07:03:32.596Z,208.27
2022-11-29T07:06:02.207Z,174.35
2022-11-29T07:08:29.425Z,146.65
2022-11-29T07:10:56.520Z,146.32
2022-11-29T07:13:23.544Z,192.02
2022-11-29T07:16:17.392Z,157.57
2022-11-29T07:19:00.474Z,220.10
2022-11-29T07:21:45.926Z,227.77
2022-11-29T07:24:54.225Z,263.85
2022-11-29T07:27:59.404Z,251.85
2022-11-29T07:30:43.020Z,190.45
2022-11-29T07:33:52.875Z,205.57
2022-11-29T07:36:29.400Z,203.05
2022-11-29T07:39:12.485Z,142.32
2022-11-29T07:42:02.837Z,167.85
2022-11-29T07:44:47.816Z,223.27
2022-11-29T07:47:14.628Z,174.02
2022-11-29T07:49:41.255Z,173.80
2022-11-29T07:52:12.222Z,102.13
2022-11-29T07:54:40.241Z,117.93
2022-11-29T07:59:33.501Z,147.48
2022-11-29T08:02:00.212Z,62.08
2022-11-29T08:04:26.934Z,105.25
2022-11-29T08:06:53.558Z,55.63
2022-11-29T08:09:20.341Z,54.38
2022-11-29T08:11:48.842Z,73.50
2022-11-29T08:14:15.606Z,74.57
2022-11-29T08:16:42.289Z,59.75
2022-11-29T08:19:09.016Z,45.47
2022-11-29T08:21:36.847Z,52.90
2022-11-29T08:24:03.902Z,36.70
2022-11-29T08:26:31.894Z,35.88
2022-11-29T08:28:58.806Z,31.42
2022-11-29T08:31:25.491Z,32.55
2022-11-29T08:33:52.223Z,36.80
2022-11-29T08:36:20.060Z,26.95
2022-11-29T08:38:47.788Z,27.42
2022-11-29T08:41:16.301Z,47.35
2022-11-29T08:43:43.906Z,37.92
2022-11-29T08:46:15.301Z,39.35
2022-11-29T08:48:45.115Z,31.85
2022-11-29T08:51:11.868Z,36.88
2022-11-29T08:53:41.278Z,33.42
2022-11-29T08:57:04.266Z,34.58
2022-11-29T08:59:05.016Z,31.27
2022-11-29T09:01:31.872Z,29.77
2022-11-29T09:04:05.185Z,31.38
2022-11-29T09:06:40.659Z,33.55
2022-11-29T09:09:07.551Z,31.30
2022-11-29T09:11:35.354Z,32.95
2022-11-29T09:14:05.682Z,35.13
2022-11-29T09:16:37.349Z,33.67
2022-11-29T09:19:05.812Z,39.75
2022-11-29T09:21:34.411Z,43.78
2022-11-29T09:24:05.558Z,41.33
2022-11-29T09:26:35.229Z,42.33
2022-11-29T09:29:05.309Z,43.90
2022-11-29T09:31:33.180Z,39.40
2022-11-29T09:36:29.265Z,35.20
2022-11-29T09:38:57.075Z,40.63
2022-11-29T09:41:48.321Z,35.10
2022-11-29T09:44:40.872Z,36.17
2022-11-29T09:47:43.039Z,40.35
2022-11-29T09:50:33.384Z,36.72
2022-11-29T09:53:43.711Z,43.17
2022-11-29T09:56:23.604Z,74.30
2022-11-29T09:59:00.378Z,46.30
2022-11-29T10:01:30.141Z,57.65
2022-11-29T10:04:12.326Z,93.97
2022-11-29T10:06:48.454Z,120.18
2022-11-29T10:09:24.357Z,162.50
2022-11-29T10:12:01.185Z,173.73
2022-11-29T10:14:35.557Z,136.60
2022-11-29T10:17:34.507Z,149.38
2022-11-29T10:20:16.920Z,79.22
2022-11-29T10:23:14.278Z,213.68
2022-11-29T10:25:49.858Z,188.05
2022-11-29T10:28:19.660Z,249.50
2022-11-29T10:30:47.924Z,148.48
2022-11-29T10:33:25.607Z,293.80
2022-11-29T10:35:57.019Z,160.65
2022-11-29T10:38:31.515Z,121.32
2022-11-29T10:41:05.454Z,175.77
2022-11-29T10:43:32.079Z,200.80
2022-11-29T10:45:59.331Z,106.55
2022-11-29T10:48:32.073Z,137.07
2022-11-29T10:50:59.517Z,176.40
2022-11-29T10:53:37.388Z,166.18
2022-11-29T10:56:31.196Z,146.15
2022-11-29T10:59:05.367Z,55.53
2022-11-29T11:01:36.795Z,178.15
2022-11-29T11:04:07.473Z,184.45
2022-11-29T11:06:49.501Z,88.07
2022-11-29T11:09:22.567Z,95.22
2022-11-29T11:11:54.928Z,124.22
2022-11-29T11:14:28.829Z,83.50
2022-11-29T11:16:55.967Z,101.53
2022-11-29T11:19:29.262Z,106.38
2022-11-29T11:21:58.231Z,113.68
2022-11-29T11:24:28.295Z,127.57
2022-11-29T11:26:55.271Z,136.40
2022-11-29T11:29:30.676Z,119.10
2022-11-29T11:31:59.795Z,133.18
2022-11-29T11:34:34.636Z,146.80
2022-11-29T11:37:21.979Z,124.18
2022-11-29T11:39:51.679Z,110.25
2022-11-29T11:42:38.920Z,116.15
2022-11-29T11:45:11.557Z,121.47
2022-11-29T11:47:46.492Z,90.28
2022-11-29T11:50:25.397Z,114.88
2022-11-29T11:52:55.580Z,68.20
2022-11-29T11:55:22.418Z,80.50
2022-11-29T11:58:10.286Z,80.22
2022-11-29T12:01:03.522Z,76.15
2022-11-29T12:04:06.427Z,74.88
2022-11-29T12:06:53.325Z,82.47
2022-11-29T12:09:44.759Z,113.85
2022-11-29T12:12:31.252Z,227.93
2022-11-29T12:15:19.584Z,71.50
2022-11-29T12:17:58.050Z,184.40
2022-11-29T12:20:51.372Z,74.70
2022-11-29T12:23:27.114Z,86.22
2022-11-29T12:26:00.265Z,79.57
2022-11-29T12:28:33.557Z,77.82
2022-11-29T12:31:06.461Z,89.60
2022-11-29T12:33:45.373Z,73.95
2022-11-29T12:36:28.395Z,53.83
2022-11-29T12:39:07.904Z,61.75
2022-11-29T12:41:43.471Z,66.97
2022-11-29T12:44:44.252Z,49.22
2022-11-29T12:47:35.637Z,69.88
2022-11-29T12:50:29.040Z,67.10
2022-11-29T12:53:22.571Z,79.60
2022-11-29T12:56:29.350Z,44.80
2022-11-29T12:59:06.084Z,84.30
2022-11-29T13:01:51.216Z,44.28
2022-11-29T13:04:33.635Z,45.65
2022-11-29T13:07:13.048Z,45.63
2022-11-29T13:10:05.195Z,48.50
2022-11-29T13:12:48.001Z,48.72
2022-11-29T13:15:17.600Z,69.32
2022-11-29T13:18:14.428Z,46.00
2022-11-29T13:20:55.956Z,50.28
2022-11-29T13:24:07.362Z,50.13
2022-11-29T13:26:29.997Z,53.70
2022-11-29T13:28:57.841Z,53.00
2022-11-29T13:31:25.662Z,40.85
2022-11-29T13:34:04.624Z,53.05
2022-11-29T13:37:08.938Z,53.53
2022-11-29T13:40:09.241Z,56.53
2022-11-29T13:43:06.898Z,59.05
2022-11-29T13:45:55.899Z,60.17
2022-11-29T13:48:28.397Z,119.88
2022-11-29T13:50:58.921Z,57.13
2022-11-29T13:53:48.219Z,61.03
2022-11-29T13:56:29.572Z,76.70
2022-11-29T13:58:58.844Z,69.13
2022-11-29T14:01:26.769Z,62.65
2022-11-29T14:06:37.269Z,58.22
2022-11-29T14:09:25.307Z,85.57
2022-11-29T14:12:00.740Z,105.40
2022-11-29T14:14:41.140Z,65.00
2022-11-29T14:17:47.394Z,118.00
2022-11-29T14:20:23.400Z,66.43
2022-11-29T14:23:05.406Z,56.97
2022-11-29T14:25:53.295Z,66.18
2022-11-29T14:28:23.080Z,56.17
2022-11-29T14:30:50.975Z,56.35
2022-11-29T14:36:18.830Z,103.97
2022-11-29T14:38:58.728Z,62.08
2022-11-29T14:41:43.719Z,63.80
2022-11-29T14:44:16.147Z,61.17
2022-11-29T14:46:42.999Z,57.55
2022-11-29T14:49:22.418Z,62.33
2022-11-29T14:52:15.674Z,68.68
2022-11-29T14:54:59.352Z,58.03
2022-11-29T14:57:48.022Z,58.00
2022-11-29T15:00:15.800Z,60.13
2022-11-29T15:02:51.039Z,58.08
2022-11-29T15:05:29.353Z,61.55
2022-11-29T15:08:17.026Z,67.78
2022-11-29T15:13:44.457Z,65.72
2022-11-29T15:16:43.324Z,77.53
2022-11-29T15:19:36.230Z,62.63
2022-11-29T15:22:22.357Z,61.70
2022-11-29T15:25:00.502Z,63.33
2022-11-29T15:27:27.241Z,62.60
2022-11-29T15:29:54.026Z,60.00
2022-11-29T15:32:27.670Z,60.65
2022-11-29T15:34:56.190Z,66.65
2022-11-29T15:37:31.871Z,65.00
2022-11-29T15:40:11.853Z,69.72
2022-11-29T15:42:55.639Z,64.40
2022-11-29T15:45:31.052Z,65.55
2022-11-29T15:48:32.880Z,70.22
2022-11-29T15:51:11.858Z,69.05
2022-11-29T15:53:45.915Z,70.70
2022-11-29T15:56:23.436Z,76.30
2022-11-29T15:58:52.129Z,73.28
2022-11-29T16:01:21.560Z,70.00
2022-11-29T16:03:52.863Z,71.38
2022-11-29T16:06:28.729Z,80.65
2022-11-29T16:08:55.618Z,69.85
2022-11-29T16:11:27.837Z,69.20
2022-11-29T16:14:20.809Z,63.20
2022-11-29T16:16:52.520Z,63.03
2022-11-29T16:19:28.123Z,62.80
2022-11-29T16:22:17.110Z,63.40
2022-11-29T16:25:15.383Z,71.50
2022-11-29T16:27:42.617Z,67.32
2022-11-29T16:30:22.699Z,68.35
2022-11-29T16:32:57.982Z,67.07
2022-11-29T16:35:27.800Z,65.38
2022-11-29T16:37:55.243Z,71.30
2022-11-29T16:40:34.455Z,67.85
2022-11-29T16:43:04.693Z,78.18
2022-11-29T16:45:42.402Z,80.75
2022-11-29T16:48:27.300Z,73.45
2022-11-29T16:51:14.877Z,77.35
2022-11-29T16:53:43.968Z,70.65
2022-11-29T16:56:16.711Z,74.35
2022-11-29T16:59:20.589Z,76.68
2022-11-29T17:01:32.265Z,68.22
2022-11-29T17:04:00.667Z,79.60
2022-11-29T17:06:29.513Z,72.80
2022-11-29T17:08:58.677Z,75.88
2022-11-29T17:11:26.074Z,68.88
2022-11-29T17:13:53.288Z,70.25
2022-11-29T17:16:22.781Z,82.00
2022-11-29T17:18:49.974Z,68.80
2022-11-29T17:21:21.273Z,72.32
2022-11-29T17:23:48.058Z,68.80
2022-11-29T17:26:15.529Z,69.68
2022-11-29T17:28:43.914Z,67.82
2022-11-29T17:31:16.284Z,68.65
2022-11-29T17:33:43.649Z,68.13
2022-11-29T17:36:15.523Z,80.10
2022-11-29T17:38:43.514Z,73.88
2022-11-29T17:41:18.953Z,75.10
2022-11-29T17:43:46.011Z,86.30
2022-11-29T17:46:20.299Z,93.80
2022-11-29T17:48:47.772Z,93.90
2022-11-29T17:51:43.596Z,92.78
2022-11-29T17:54:04.389Z,94.05
2022-11-29T17:59:13.045Z,80.95
2022-11-29T18:01:39.798Z,80.22
2022-11-29T18:04:08.364Z,73.05
2022-11-29T18:06:39.571Z,68.10
2022-11-29T18:09:08.746Z,80.72
2022-11-29T18:11:46.371Z,70.00
2022-11-29T18:14:16.640Z,70.65
2022-11-29T18:16:45.206Z,150.00
2022-11-29T18:19:15.149Z,113.78
2022-11-29T18:21:42.295Z,135.45
2022-11-29T18:24:09.495Z,115.47
2022-11-29T18:26:37.525Z,120.75
2022-11-29T18:31:38.276Z,165.52
2022-11-29T18:34:09.375Z,224.52
2022-11-29T18:36:39.405Z,200.02
2022-11-29T18:39:11.312Z,284.85
2022-11-29T18:41:38.358Z,135.05
2022-11-29T18:44:08.206Z,228.23
2022-11-29T18:46:37.275Z,300.55
2022-11-29T18:49:06.579Z,314.50
2022-11-29T18:51:35.728Z,253.77
2022-11-29T18:54:02.933Z,291.15
2022-11-29T18:56:31.926Z,265.90
2022-11-29T18:59:10.279Z,297.73
2022-11-29T19:01:41.283Z,207.60
2022-11-29T19:04:10.959Z,1167.95
2022-11-29T19:06:39.920Z,199.10
2022-11-29T19:09:11.502Z,176.02
2022-11-29T19:11:39.071Z,255.73
2022-11-29T19:14:11.798Z,208.40
2022-11-29T19:16:41.023Z,220.98
2022-11-29T19:19:08.365Z,258.20
2022-11-29T19:21:35.412Z,220.73
2022-11-29T19:24:06.872Z,481.60
2022-11-29T19:26:34.770Z,402.73
2022-11-29T19:29:02.465Z,311.52
2022-11-29T19:31:29.960Z,427.67
2022-11-29T19:33:57.448Z,189.23
2022-11-29T19:36:25.846Z,245.20
2022-11-29T19:38:54.407Z,382.40
2022-11-29T19:41:30.315Z,363.42
2022-11-29T19:43:58.448Z,316.40
2022-11-29T19:46:28.136Z,443.02
2022-11-29T19:48:56.640Z,317.38
2022-11-29T19:51:24.456Z,315.88
2022-11-29T19:53:56.796Z,205.57
2022-11-29T19:56:24.317Z,293.58
2022-11-29T19:58:51.482Z,349.23
2022-11-29T20:01:25.270Z,275.65
2022-11-29T20:03:52.871Z,270.15
2022-11-29T20:06:19.678Z,243.95
2022-11-29T20:08:46.405Z,276.58
2022-11-29T20:11:20.655Z,156.63
2022-11-29T20:13:53.257Z,119.18
2022-11-29T20:16:22.155Z,140.40
2022-11-29T20:18:51.069Z,134.45
2022-11-29T20:21:19.065Z,161.32
2022-11-29T20:23:45.902Z,193.15
2022-11-29T20:26:15.706Z,145.65
2022-11-29T20:28:45.910Z,140.18
2022-11-29T20:31:21.228Z,149.35
2022-11-29T20:33:48.814Z,105.88
2022-11-29T20:36:30.708Z,153.18
2022-11-29T20:39:19.671Z,120.07
2022-11-29T20:41:57.388Z,113.47
2022-11-29T20:44:54.560Z,93.47
2022-11-29T20:47:26.987Z,128.85
2022-11-29T20:49:54.173Z,90.15
2022-11-29T20:52:45.574Z,126.97
2022-11-29T20:55:12.306Z,128.07
2022-11-29T20:57:38.927Z,156.85
2022-11-29T21:00:07.740Z,134.38
2022-11-29T21:02:34.579Z,107.63
2022-11-29T21:05:01.222Z,94.75
2022-11-29T21:07:29.252Z,117.90
2022-11-29T21:10:00.965Z,83.00
2022-11-29T21:12:29.259Z,113.63
2022-11-29T21:14:56.233Z,88.65
2022-11-29T21:17:23.268Z,85.15
2022-11-29T21:19:50.161Z,96.67
2022-11-29T21:22:40.946Z,97.23
2022-11-29T21:25:37.523Z,96.40
2022-11-29T21:28:10.818Z,87.00
2022-11-29T21:30:37.831Z,84.13
2022-11-29T21:33:05.633Z,81.33
2022-11-29T21:35:32.870Z,78.53
2022-11-29T21:38:01.623Z,86.95
2022-11-29T21:40:28.491Z,93.38
2022-11-29T21:42:55.426Z,87.75
2022-11-29T21:45:22.106Z,96.82
2022-11-29T21:47:48.780Z,86.70
2022-11-29T21:50:15.474Z,95.70
2022-11-29T21:52:43.660Z,96.95
2022-11-29T21:55:10.872Z,89.43
2022-11-29T21:57:38.750Z,105.63
2022-11-29T22:00:06.111Z,98.65
2022-11-29T22:02:32.775Z,99.28
2022-11-29T22:04:59.470Z,101.78
2022-11-29T22:07:27.196Z,104.30
2022-11-29T22:09:53.907Z,123.95
2022-11-29T22:12:33.801Z,120.97
2022-11-29T22:15:01.221Z,107.70
2022-11-29T22:17:27.946Z,94.00
2022-11-29T22:19:54.655Z,100.88
2022-11-29T22:22:21.407Z,94.07
2022-11-29T22:24:48.530Z,90.45
2022-11-29T22:27:17.719Z,96.85
2022-11-29T22:29:44.610Z,81.47
2022-11-29T22:32:11.372Z,90.95
2022-11-29T22:34:38.053Z,94.30
2022-11-29T22:37:04.702Z,87.90
2022-11-29T22:39:31.382Z,85.63
2022-11-29T22:41:58.066Z,86.07
2022-11-29T22:44:24.755Z,81.72
2022-11-29T22:46:51.771Z,80.78
2022-11-29T22:49:18.527Z,88.30
2022-11-29T22:51:45.170Z,81.72
2022-11-29T22:54:15.227Z,94.43
2022-11-29T22:56:43.468Z,86.72
2022-11-29T22:59:10.538Z,89.00
2022-11-29T23:01:39.750Z,88.60
2022-11-29T23:04:09.799Z,83.70
2022-11-29T23:06:42.242Z,95.30
2022-11-29T23:09:15.205Z,70.65
2022-11-29T23:11:43.598Z,84.60
2022-11-29T23:14:10.475Z,78.20
2022-11-29T23:16:37.248Z,89.93
2022-11-29T23:19:04.930Z,84.22
2022-11-29T23:21:35.135Z,87.10
2022-11-29T23:24:02.359Z,95.38
2022-11-29T23:26:36.399Z,83.38
2022-11-29T23:29:05.499Z,93.47
2022-11-29T23:31:33.249Z,95.57
2022-11-29T23:34:02.304Z,90.07
2022-11-29T23:36:29.929Z,88.88
2022-11-29T23:38:56.812Z,87.63
2022-11-29T23:41:23.504Z,71.97
2022-11-29T23:43:50.418Z,82.00
2022-11-29T23:46:19.941Z,78.60
2022-11-29T23:48:46.890Z,73.32
2022-11-29T23:51:14.437Z,84.57
2022-11-29T23:53:42.135Z,108.22
2022-11-29T23:56:13.069Z,87.40
2022-11-29T23:58:39.958Z,70.55
